sensor_id;sensor_type;location;lat;lon;timestamp;pressure;altitude;pressure_sealevel;temperature;humidity
19763;BME280;10040;42.614;23.164;2022-07-29T00:01:26;92884.22;;;18.35;91.53
19763;BME280;10040;42.614;23.164;2022-07-29T00:03:54;92883.00;;;18.77;91.04
19763;BME280;10040;42.614;23.164;2022-07-29T00:06:21;92875.00;;;18.50;90.22
19763;BME280;10040;42.614;23.164;2022-07-29T00:08:49;92862.41;;;18.83;93.35
19763;BME280;10040;42.614;23.164;2022-07-29T00:11:17;92865.06;;;19.31;91.74
19763;BME280;10040;42.614;23.164;2022-07-29T00:13:45;92867.97;;;19.67;89.84
19763;BME280;10040;42.614;23.164;2022-07-29T00:16:12;92872.41;;;19.93;88.13
19763;BME280;10040;42.614;23.164;2022-07-29T00:18:40;92878.25;;;19.99;85.88
19763;BME280;10040;42.614;23.164;2022-07-29T00:21:07;92881.44;;;20.23;86.84
19763;BME280;10040;42.614;23.164;2022-07-29T00:23:34;92879.13;;;20.46;86.77
19763;BME280;10040;42.614;23.164;2022-07-29T00:28:30;92881.53;;;20.66;84.84
19763;BME280;10040;42.614;23.164;2022-07-29T00:30:58;92878.00;;;20.69;85.02
19763;BME280;10040;42.614;23.164;2022-07-29T00:33:25;92882.31;;;20.77;84.60
19763;BME280;10040;42.614;23.164;2022-07-29T00:35:53;92889.78;;;20.80;84.34
19763;BME280;10040;42.614;23.164;2022-07-29T00:38:19;92889.34;;;20.78;83.84
19763;BME280;10040;42.614;23.164;2022-07-29T00:40:47;92882.31;;;20.77;84.30
19763;BME280;10040;42.614;23.164;2022-07-29T00:43:15;92878.41;;;20.78;83.82
19763;BME280;10040;42.614;23.164;2022-07-29T00:45:45;92876.06;;;20.87;83.31
19763;BME280;10040;42.614;23.164;2022-07-29T00:48:12;92868.25;;;20.75;83.47
19763;BME280;10040;42.614;23.164;2022-07-29T00:50:40;92864.31;;;20.76;83.56
19763;BME280;10040;42.614;23.164;2022-07-29T00:53:08;92869.00;;;20.79;82.77
19763;BME280;10040;42.614;23.164;2022-07-29T00:55:36;92866.28;;;20.72;83.10
19763;BME280;10040;42.614;23.164;2022-07-29T00:58:03;92877.22;;;20.65;83.48
19763;BME280;10040;42.614;23.164;2022-07-29T01:00:32;92841.97;;;20.45;82.26
19763;BME280;10040;42.614;23.164;2022-07-29T01:03:00;92843.53;;;20.46;83.19
19763;BME280;10040;42.614;23.164;2022-07-29T01:05:28;92861.94;;;20.35;81.99
19763;BME280;10040;42.614;23.164;2022-07-29T01:07:57;92842.75;;;20.39;82.76
19763;BME280;10040;42.614;23.164;2022-07-29T01:10:25;92829.03;;;20.24;84.07
19763;BME280;10040;42.614;23.164;2022-07-29T01:12:55;92811.44;;;20.22;82.81
19763;BME280;10040;42.614;23.164;2022-07-29T01:15:24;92855.28;;;20.47;83.28
19763;BME280;10040;42.614;23.164;2022-07-29T01:17:58;92841.97;;;20.52;83.35
19763;BME280;10040;42.614;23.164;2022-07-29T01:20:34;92845.47;;;20.31;80.83
19763;BME280;10040;42.614;23.164;2022-07-29T01:23:14;92844.31;;;20.22;83.56
19763;BME280;10040;42.614;23.164;2022-07-29T01:26:10;92848.63;;;20.37;83.81
19763;BME280;10040;42.614;23.164;2022-07-29T01:29:05;92834.16;;;20.47;83.39
19763;BME280;10040;42.614;23.164;2022-07-29T01:31:42;92827.50;;;20.38;81.84
19763;BME280;10040;42.614;23.164;2022-07-29T01:34:13;92834.53;;;20.35;82.84
19763;BME280;10040;42.614;23.164;2022-07-29T01:36:48;92830.63;;;20.40;82.06
19763;BME280;10040;42.614;23.164;2022-07-29T01:39:20;92828.25;;;20.34;83.01
19763;BME280;10040;42.614;23.164;2022-07-29T01:41:57;92840.00;;;20.42;82.65
19763;BME280;10040;42.614;23.164;2022-07-29T01:44:31;92831.41;;;20.47;82.45
19763;BME280;10040;42.614;23.164;2022-07-29T01:47:04;92805.97;;;20.29;82.04
19763;BME280;10040;42.614;23.164;2022-07-29T01:49:35;92827.91;;;20.50;82.14
19763;BME280;10040;42.614;23.164;2022-07-29T01:52:05;92829.84;;;20.46;81.57
19763;BME280;10040;42.614;23.164;2022-07-29T01:54:38;92821.22;;;20.44;81.92
19763;BME280;10040;42.614;23.164;2022-07-29T01:57:10;92829.06;;;20.46;81.84
19763;BME280;10040;42.614;23.164;2022-07-29T01:59:40;92828.28;;;20.42;82.17
19763;BME280;10040;42.614;23.164;2022-07-29T02:02:10;92822.41;;;20.29;82.23
19763;BME280;10040;42.614;23.164;2022-07-29T02:04:39;92830.97;;;20.17;82.03
19763;BME280;10040;42.614;23.164;2022-07-29T02:07:11;92820.44;;;20.22;82.96
19763;BME280;10040;42.614;23.164;2022-07-29T02:09:41;92834.50;;;20.24;82.30
19763;BME280;10040;42.614;23.164;2022-07-29T02:12:10;92815.31;;;20.10;82.02
19763;BME280;10040;42.614;23.164;2022-07-29T02:14:42;92796.47;;;19.72;83.14
19763;BME280;10040;42.614;23.164;2022-07-29T02:17:12;92803.94;;;19.79;84.51
19763;BME280;10040;42.614;23.164;2022-07-29T02:19:42;92795.34;;;19.95;83.70
19763;BME280;10040;42.614;23.164;2022-07-29T02:22:10;92796.16;;;20.06;82.79
19763;BME280;10040;42.614;23.164;2022-07-29T02:24:39;92796.97;;;20.10;82.59
19763;BME280;10040;42.614;23.164;2022-07-29T02:27:08;92798.50;;;20.04;80.85
19763;BME280;10040;42.614;23.164;2022-07-29T02:29:37;92794.59;;;19.91;82.72
19763;BME280;10040;42.614;23.164;2022-07-29T02:32:09;92796.50;;;19.76;81.69
19763;BME280;10040;42.614;23.164;2022-07-29T02:34:39;92792.16;;;19.64;83.83
19763;BME280;10040;42.614;23.164;2022-07-29T02:37:09;92797.69;;;19.82;83.45
19763;BME280;10040;42.614;23.164;2022-07-29T02:39:38;92800.81;;;19.88;83.00
19763;BME280;10040;42.614;23.164;2022-07-29T02:42:11;92796.94;;;20.00;83.17
19763;BME280;10040;42.614;23.164;2022-07-29T02:44:39;92773.47;;;19.91;82.26
19763;BME280;10040;42.614;23.164;2022-07-29T02:47:13;92796.16;;;20.06;81.33
19763;BME280;10040;42.614;23.164;2022-07-29T02:49:48;92796.94;;;20.03;81.80
19763;BME280;10040;42.614;23.164;2022-07-29T02:52:23;92779.75;;;19.92;81.92
19763;BME280;10040;42.614;23.164;2022-07-29T02:54:54;92791.84;;;19.98;82.26
19763;BME280;10040;42.614;23.164;2022-07-29T02:57:31;92791.06;;;19.94;82.42
19763;BME280;10040;42.614;23.164;2022-07-29T03:00:03;92812.53;;;19.85;81.61
19763;BME280;10040;42.614;23.164;2022-07-29T03:02:36;92796.94;;;19.89;82.26
19763;BME280;10040;42.614;23.164;2022-07-29T03:05:06;92791.47;;;19.92;82.59
19763;BME280;10040;42.614;23.164;2022-07-29T03:07:35;92789.88;;;19.95;81.56
19763;BME280;10040;42.614;23.164;2022-07-29T03:10:05;92789.09;;;19.80;82.58
19763;BME280;10040;42.614;23.164;2022-07-29T03:12:33;92782.81;;;19.83;82.88
19763;BME280;10040;42.614;23.164;2022-07-29T03:15:01;92778.16;;;19.84;82.59
19763;BME280;10040;42.614;23.164;2022-07-29T03:17:30;92789.09;;;19.91;82.18
19763;BME280;10040;42.614;23.164;2022-07-29T03:20:00;92792.63;;;19.84;82.68
19763;BME280;10040;42.614;23.164;2022-07-29T03:22:29;92805.00;;;19.53;81.09
19763;BME280;10040;42.614;23.164;2022-07-29T03:24:56;92796.78;;;19.46;82.91
19763;BME280;10040;42.614;23.164;2022-07-29T03:27:24;92805.06;;;19.67;82.94
19763;BME280;10040;42.614;23.164;2022-07-29T03:29:51;92808.94;;;19.70;82.17
19763;BME280;10040;42.614;23.164;2022-07-29T03:32:18;92813.25;;;19.67;82.52
19763;BME280;10040;42.614;23.164;2022-07-29T03:34:46;92822.22;;;19.57;83.12
19763;BME280;10040;42.614;23.164;2022-07-29T03:37:15;92821.47;;;19.64;82.95
19763;BME280;10040;42.614;23.164;2022-07-29T03:39:43;92818.72;;;19.67;82.59
19763;BME280;10040;42.614;23.164;2022-07-29T03:42:13;92815.63;;;19.69;82.04
19763;BME280;10040;42.614;23.164;2022-07-29T03:44:44;92804.66;;;19.65;82.25
19763;BME280;10040;42.614;23.164;2022-07-29T03:47:14;92822.66;;;19.73;81.84
19763;BME280;10040;42.614;23.164;2022-07-29T03:49:47;92817.94;;;19.67;82.26
19763;BME280;10040;42.614;23.164;2022-07-29T03:52:17;92797.59;;;19.60;82.28
19763;BME280;10040;42.614;23.164;2022-07-29T03:54:45;92814.03;;;19.68;80.72
19763;BME280;10040;42.614;23.164;2022-07-29T03:57:13;92815.59;;;19.65;82.10
19763;BME280;10040;42.614;23.164;2022-07-29T03:59:42;92811.69;;;19.70;82.15
19763;BME280;10040;42.614;23.164;2022-07-29T04:02:11;92816.00;;;19.74;81.96
19763;BME280;10040;42.614;23.164;2022-07-29T04:04:38;92823.09;;;19.75;82.17
19763;BME280;10040;42.614;23.164;2022-07-29T04:07:06;92818.00;;;19.77;81.89
19763;BME280;10040;42.614;23.164;2022-07-29T04:09:35;92816.44;;;19.76;81.56
19763;BME280;10040;42.614;23.164;2022-07-29T04:12:02;92838.34;;;19.80;81.51
19763;BME280;10040;42.614;23.164;2022-07-29T04:14:30;92818.78;;;19.82;81.27
19763;BME280;10040;42.614;23.164;2022-07-29T04:16:58;92823.47;;;19.85;81.52
19763;BME280;10040;42.614;23.164;2022-07-29T04:19:26;92826.59;;;19.80;80.91
19763;BME280;10040;42.614;23.164;2022-07-29T04:21:53;92831.31;;;19.83;81.38
19763;BME280;10040;42.614;23.164;2022-07-29T04:24:20;92828.94;;;19.77;81.60
19763;BME280;10040;42.614;23.164;2022-07-29T04:26:49;92831.59;;;19.67;82.50
19763;BME280;10040;42.614;23.164;2022-07-29T04:29:17;92831.31;;;19.83;82.24
19763;BME280;10040;42.614;23.164;2022-07-29T04:31:44;92834.84;;;19.90;82.46
19763;BME280;10040;42.614;23.164;2022-07-29T04:34:12;92839.91;;;19.81;82.57
19763;BME280;10040;42.614;23.164;2022-07-29T04:36:39;92846.94;;;19.86;82.50
19763;BME280;10040;42.614;23.164;2022-07-29T04:39:07;92830.00;;;19.55;82.14
19763;BME280;10040;42.614;23.164;2022-07-29T04:41:34;92845.31;;;19.70;83.49
19763;BME280;10040;42.614;23.164;2022-07-29T04:44:03;92806.56;;;19.54;83.62
19763;BME280;10040;42.614;23.164;2022-07-29T04:46:32;92848.53;;;19.94;82.91
19763;BME280;10040;42.614;23.164;2022-07-29T04:48:59;92845.31;;;19.70;82.32
19763;BME280;10040;42.614;23.164;2022-07-29T04:51:26;92845.28;;;19.63;84.05
19763;BME280;10040;42.614;23.164;2022-07-29T04:53:54;92853.19;;;19.90;83.70
19763;BME280;10040;42.614;23.164;2022-07-29T04:56:21;92851.69;;;20.03;83.76
19763;BME280;10040;42.614;23.164;2022-07-29T04:58:49;92845.44;;;20.06;83.19
19763;BME280;10040;42.614;23.164;2022-07-29T05:01:18;92846.22;;;20.07;83.24
19763;BME280;10040;42.614;23.164;2022-07-29T05:03:46;92847.41;;;20.13;83.55
19763;BME280;10040;42.614;23.164;2022-07-29T05:06:13;92850.56;;;20.26;82.53
19763;BME280;10040;42.614;23.164;2022-07-29T05:08:41;92834.13;;;20.19;83.18
19763;BME280;10040;42.614;23.164;2022-07-29T05:11:08;92842.38;;;20.40;83.04
19763;BME280;10040;42.614;23.164;2022-07-29T05:13:36;92848.63;;;20.51;82.48
19763;BME280;10040;42.614;23.164;2022-07-29T05:16:04;92835.72;;;20.59;82.53
19763;BME280;10040;42.614;23.164;2022-07-29T05:18:33;92845.91;;;20.66;82.10
19763;BME280;10040;42.614;23.164;2022-07-29T05:21:00;92840.03;;;20.75;81.75
19763;BME280;10040;42.614;23.164;2022-07-29T05:23:28;92847.47;;;20.81;81.51
19763;BME280;10040;42.614;23.164;2022-07-29T05:25:55;92847.06;;;20.86;81.82
19763;BME280;10040;42.614;23.164;2022-07-29T05:28:23;92852.94;;;20.99;81.73
19763;BME280;10040;42.614;23.164;2022-07-29T05:30:50;92847.84;;;21.12;80.85
19763;BME280;10040;42.614;23.164;2022-07-29T05:33:17;92812.59;;;21.00;80.58
19763;BME280;10040;42.614;23.164;2022-07-29T05:35:46;92840.38;;;21.27;80.50
19763;BME280;10040;42.614;23.164;2022-07-29T05:38:14;92841.16;;;21.24;79.96
19763;BME280;10040;42.614;23.164;2022-07-29T05:40:41;92843.50;;;21.25;80.08
19763;BME280;10040;42.614;23.164;2022-07-29T05:43:09;92853.72;;;21.11;80.19
19763;BME280;10040;42.614;23.164;2022-07-29T05:45:38;92851.38;;;21.02;80.20
19763;BME280;10040;42.614;23.164;2022-07-29T05:48:05;92831.38;;;21.01;79.90
19763;BME280;10040;42.614;23.164;2022-07-29T05:50:33;92857.19;;;21.33;80.32
19763;BME280;10040;42.614;23.164;2022-07-29T05:53:01;92856.75;;;21.56;79.98
19763;BME280;10040;42.614;23.164;2022-07-29T05:55:29;92860.31;;;21.38;80.89
19763;BME280;10040;42.614;23.164;2022-07-29T05:57:57;92864.31;;;20.83;82.32
19763;BME280;10040;42.614;23.164;2022-07-29T06:00:24;92856.44;;;21.00;84.16
19763;BME280;10040;42.614;23.164;2022-07-29T06:02:51;92856.09;;;20.87;83.18
19763;BME280;10040;42.614;23.164;2022-07-29T06:05:19;92855.28;;;20.58;85.13
19763;BME280;10040;42.614;23.164;2022-07-29T06:07:46;92868.97;;;20.54;84.93
19763;BME280;10040;42.614;23.164;2022-07-29T06:10:15;92856.84;;;21.13;83.29
19763;BME280;10040;42.614;23.164;2022-07-29T06:12:43;92849.31;;;21.56;82.23
19763;BME280;10040;42.614;23.164;2022-07-29T06:15:10;92885.38;;;21.51;81.61
19763;BME280;10040;42.614;23.164;2022-07-29T06:17:37;92855.94;;;21.73;80.71
19763;BME280;10040;42.614;23.164;2022-07-29T06:20:06;92863.44;;;21.44;81.36
19763;BME280;10040;42.614;23.164;2022-07-29T06:22:33;92863.47;;;21.37;82.47
19763;BME280;10040;42.614;23.164;2022-07-29T06:25:01;92892.44;;;21.45;81.10
19763;BME280;10040;42.614;23.164;2022-07-29T06:27:31;92853.25;;;21.52;80.86
19763;BME280;10040;42.614;23.164;2022-07-29T06:29:59;92845.84;;;21.20;80.96
19763;BME280;10040;42.614;23.164;2022-07-29T06:32:27;92846.19;;;21.36;81.42
19763;BME280;10040;42.614;23.164;2022-07-29T06:34:57;92860.31;;;21.35;81.36
19763;BME280;10040;42.614;23.164;2022-07-29T06:37:24;92850.00;;;21.82;80.81
19763;BME280;10040;42.614;23.164;2022-07-29T06:39:52;92843.34;;;22.53;78.90
19763;BME280;10040;42.614;23.164;2022-07-29T06:42:43;92847.75;;;22.89;75.50
19763;BME280;10040;42.614;23.164;2022-07-29T06:45:11;92846.69;;;22.76;76.71
19763;BME280;10040;42.614;23.164;2022-07-29T06:47:38;92848.72;;;22.68;78.01
19763;BME280;10040;42.614;23.164;2022-07-29T06:50:06;92853.22;;;22.92;77.02
19763;BME280;10040;42.614;23.164;2022-07-29T06:52:38;92845.56;;;23.15;78.24
19763;BME280;10040;42.614;23.164;2022-07-29T06:55:07;92855.50;;;23.46;77.20
19763;BME280;10040;42.614;23.164;2022-07-29T06:57:35;92854.28;;;23.48;75.83
19763;BME280;10040;42.614;23.164;2022-07-29T07:00:05;92839.41;;;23.45;75.29
19763;BME280;10040;42.614;23.164;2022-07-29T07:02:33;92825.06;;;23.61;75.46
19763;BME280;10040;42.614;23.164;2022-07-29T07:05:00;92845.09;;;23.96;73.83
19763;BME280;10040;42.614;23.164;2022-07-29T07:07:28;92859.53;;;24.07;73.74
19763;BME280;10040;42.614;23.164;2022-07-29T07:09:55;92860.34;;;24.35;73.24
19763;BME280;10040;42.614;23.164;2022-07-29T07:12:23;92868.50;;;24.11;72.53
19763;BME280;10040;42.614;23.164;2022-07-29T07:14:51;92862.38;;;24.00;73.28
19763;BME280;10040;42.614;23.164;2022-07-29T07:17:20;92859.38;;;23.87;73.27
19763;BME280;10040;42.614;23.164;2022-07-29T07:19:47;92859.53;;;24.07;73.88
19763;BME280;10040;42.614;23.164;2022-07-29T07:22:15;92859.47;;;23.76;72.83
19763;BME280;10040;42.614;23.164;2022-07-29T07:24:42;92859.69;;;23.58;74.68
19763;BME280;10040;42.614;23.164;2022-07-29T07:27:09;92852.00;;;23.42;73.88
19763;BME280;10040;42.614;23.164;2022-07-29T07:29:37;92855.59;;;23.74;75.30
19763;BME280;10040;42.614;23.164;2022-07-29T07:32:07;92893.13;;;23.95;74.98
19763;BME280;10040;42.614;23.164;2022-07-29T07:34:36;92859.59;;;24.62;73.74
19763;BME280;10040;42.614;23.164;2022-07-29T07:37:03;92854.81;;;24.89;72.31
19763;BME280;10040;42.614;23.164;2022-07-29T07:39:31;92857.16;;;25.15;71.92
19763;BME280;10040;42.614;23.164;2022-07-29T07:41:58;92845.81;;;25.09;69.31
19763;BME280;10040;42.614;23.164;2022-07-29T07:44:26;92866.53;;;24.97;68.14
19763;BME280;10040;42.614;23.164;2022-07-29T07:46:54;92859.81;;;25.22;68.98
19763;BME280;10040;42.614;23.164;2022-07-29T07:49:21;92864.38;;;25.32;68.44
19763;BME280;10040;42.614;23.164;2022-07-29T07:51:50;92862.81;;;25.75;69.53
19763;BME280;10040;42.614;23.164;2022-07-29T07:54:18;92861.63;;;25.96;67.11
19763;BME280;10040;42.614;23.164;2022-07-29T07:56:46;92856.81;;;26.20;67.64
19763;BME280;10040;42.614;23.164;2022-07-29T07:59:14;92854.50;;;26.35;65.03
19763;BME280;10040;42.614;23.164;2022-07-29T08:01:42;92864.75;;;26.34;65.17
19763;BME280;10040;42.614;23.164;2022-07-29T08:04:10;92839.53;;;26.32;65.25
19763;BME280;10040;42.614;23.164;2022-07-29T08:06:37;92842.44;;;26.45;65.86
19763;BME280;10040;42.614;23.164;2022-07-29T08:09:06;92862.44;;;26.69;65.41
19763;BME280;10040;42.614;23.164;2022-07-29T08:11:34;92844.22;;;26.35;63.96
19763;BME280;10040;42.614;23.164;2022-07-29T08:14:01;92860.97;;;26.81;63.91
19763;BME280;10040;42.614;23.164;2022-07-29T08:16:28;92851.91;;;26.97;63.45
19763;BME280;10040;42.614;23.164;2022-07-29T08:18:56;92861.41;;;26.96;64.33
19763;BME280;10040;42.614;23.164;2022-07-29T08:21:24;92861.09;;;26.94;63.69
19763;BME280;10040;42.614;23.164;2022-07-29T08:23:51;92843.53;;;27.01;62.69
19763;BME280;10040;42.614;23.164;2022-07-29T08:26:41;92853.06;;;27.00;62.56
19763;BME280;10040;42.614;23.164;2022-07-29T08:29:09;92869.38;;;27.60;63.67
19763;BME280;10040;42.614;23.164;2022-07-29T08:31:37;92866.81;;;27.65;59.93
19763;BME280;10040;42.614;23.164;2022-07-29T08:34:05;92856.94;;;27.64;59.74
19763;BME280;10040;42.614;23.164;2022-07-29T08:36:34;92862.88;;;27.79;60.67
19763;BME280;10040;42.614;23.164;2022-07-29T08:39:02;92861.25;;;27.82;60.43
19763;BME280;10040;42.614;23.164;2022-07-29T08:41:30;92869.28;;;27.93;59.94
19763;BME280;10040;42.614;23.164;2022-07-29T08:43:59;92866.44;;;27.96;59.95
19763;BME280;10040;42.614;23.164;2022-07-29T08:46:27;92852.50;;;27.83;60.74
19763;BME280;10040;42.614;23.164;2022-07-29T08:49:12;92862.22;;;28.04;60.40
19763;BME280;10040;42.614;23.164;2022-07-29T08:51:40;92864.56;;;27.77;59.45
19763;BME280;10040;42.614;23.164;2022-07-29T08:54:09;92850.09;;;27.69;60.41
19763;BME280;10040;42.614;23.164;2022-07-29T08:56:37;92824.41;;;27.68;60.30
19763;BME280;10040;42.614;23.164;2022-07-29T08:59:08;92844.75;;;27.91;60.29
19763;BME280;10040;42.614;23.164;2022-07-29T09:01:37;92845.16;;;28.06;60.22
19763;BME280;10040;42.614;23.164;2022-07-29T09:04:10;92847.09;;;28.48;61.50
19763;BME280;10040;42.614;23.164;2022-07-29T09:06:43;92844.31;;;28.48;60.30
19763;BME280;10040;42.614;23.164;2022-07-29T09:09:11;92838.06;;;28.73;58.75
19763;BME280;10040;42.614;23.164;2022-07-29T09:11:40;92843.25;;;28.96;56.11
19763;BME280;10040;42.614;23.164;2022-07-29T09:14:11;92848.25;;;29.02;57.06
19763;BME280;10040;42.614;23.164;2022-07-29T09:16:47;92850.44;;;29.07;57.16
19763;BME280;10040;42.614;23.164;2022-07-29T09:19:27;92852.56;;;29.03;53.50
19763;BME280;10040;42.614;23.164;2022-07-29T09:21:56;92852.66;;;28.99;54.65
19763;BME280;10040;42.614;23.164;2022-07-29T09:24:36;92857.00;;;29.13;56.98
19763;BME280;10040;42.614;23.164;2022-07-29T09:27:11;92851.00;;;29.02;57.28
19763;BME280;10040;42.614;23.164;2022-07-29T09:29:46;92858.53;;;29.14;58.60
19763;BME280;10040;42.614;23.164;2022-07-29T09:32:13;92852.75;;;29.34;53.37
19763;BME280;10040;42.614;23.164;2022-07-29T09:34:41;92864.25;;;28.85;52.62
19763;BME280;10040;42.614;23.164;2022-07-29T09:37:08;92851.84;;;29.37;54.74
19763;BME280;10040;42.614;23.164;2022-07-29T09:39:38;92845.00;;;29.29;55.85
19763;BME280;10040;42.614;23.164;2022-07-29T09:42:12;92850.38;;;29.58;52.71
19763;BME280;10040;42.614;23.164;2022-07-29T09:44:44;92847.41;;;29.75;52.99
19763;BME280;10040;42.614;23.164;2022-07-29T09:47:15;92843.44;;;30.20;51.34
19763;BME280;10040;42.614;23.164;2022-07-29T09:49:52;92849.25;;;30.35;52.03
19763;BME280;10040;42.614;23.164;2022-07-29T09:52:20;92843.06;;;29.74;52.37
19763;BME280;10040;42.614;23.164;2022-07-29T09:54:47;92841.38;;;30.11;51.85
19763;BME280;10040;42.614;23.164;2022-07-29T09:57:23;92833.66;;;30.37;48.39
19763;BME280;10040;42.614;23.164;2022-07-29T09:59:59;92838.63;;;30.42;50.31
19763;BME280;10040;42.614;23.164;2022-07-29T10:02:33;92828.25;;;29.89;51.81
19763;BME280;10040;42.614;23.164;2022-07-29T10:05:03;92869.22;;;30.20;51.64
19763;BME280;10040;42.614;23.164;2022-07-29T10:07:44;92835.28;;;30.03;49.13
19763;BME280;10040;42.614;23.164;2022-07-29T10:10:19;92824.50;;;29.48;52.53
19763;BME280;10040;42.614;23.164;2022-07-29T10:12:53;92817.81;;;29.81;51.14
19763;BME280;10040;42.614;23.164;2022-07-29T10:15:23;92821.75;;;30.37;53.04
19763;BME280;10040;42.614;23.164;2022-07-29T10:17:53;92803.53;;;30.14;50.08
19763;BME280;10040;42.614;23.164;2022-07-29T10:20:21;92802.25;;;29.83;51.18
19763;BME280;10040;42.614;23.164;2022-07-29T10:22:49;92803.84;;;30.16;49.85
19763;BME280;10040;42.614;23.164;2022-07-29T10:25:18;92802.69;;;30.26;50.38
19763;BME280;10040;42.614;23.164;2022-07-29T10:27:47;92797.97;;;30.86;49.90
19763;BME280;10040;42.614;23.164;2022-07-29T10:30:15;92796.41;;;30.75;46.63
19763;BME280;10040;42.614;23.164;2022-07-29T10:32:57;92792.00;;;29.58;47.27
19763;BME280;10040;42.614;23.164;2022-07-29T10:35:43;92808.94;;;28.90;54.31
19763;BME280;10040;42.614;23.164;2022-07-29T10:38:43;92791.81;;;29.05;51.78
19763;BME280;10040;42.614;23.164;2022-07-29T10:41:18;92790.03;;;29.81;53.92
19763;BME280;10040;42.614;23.164;2022-07-29T10:43:58;92789.94;;;30.16;49.00
19763;BME280;10040;42.614;23.164;2022-07-29T10:46:27;92790.13;;;30.21;48.83
19763;BME280;10040;42.614;23.164;2022-07-29T10:49:06;92781.59;;;29.49;51.50
19763;BME280;10040;42.614;23.164;2022-07-29T10:51:58;92785.13;;;29.15;52.98
19763;BME280;10040;42.614;23.164;2022-07-29T10:54:46;92775.81;;;29.79;49.44
19763;BME280;10040;42.614;23.164;2022-07-29T10:57:16;92772.56;;;29.58;47.57
19763;BME280;10040;42.614;23.164;2022-07-29T10:59:46;92777.44;;;29.54;48.52
19763;BME280;10040;42.614;23.164;2022-07-29T11:02:45;92766.75;;;30.41;46.45
19763;BME280;10040;42.614;23.164;2022-07-29T11:05:19;92749.03;;;30.57;48.86
19763;BME280;10040;42.614;23.164;2022-07-29T11:08:19;92755.81;;;30.56;49.25
19763;BME280;10040;42.614;23.164;2022-07-29T11:10:48;92772.72;;;31.39;47.19
19763;BME280;10040;42.614;23.164;2022-07-29T11:13:44;92756.03;;;31.67;46.24
19763;BME280;10040;42.614;23.164;2022-07-29T11:16:13;92758.47;;;31.18;47.35
19763;BME280;10040;42.614;23.164;2022-07-29T11:21:47;92745.78;;;31.45;47.10
19763;BME280;10040;42.614;23.164;2022-07-29T11:24:18;92740.41;;;31.69;46.35
19763;BME280;10040;42.614;23.164;2022-07-29T11:27:08;92758.09;;;32.27;45.96
19763;BME280;10040;42.614;23.164;2022-07-29T11:29:39;92740.69;;;32.42;42.80
19763;BME280;10040;42.614;23.164;2022-07-29T11:32:11;92756.59;;;31.99;44.03
19763;BME280;10040;42.614;23.164;2022-07-29T11:34:40;92744.13;;;31.66;44.30
19763;BME280;10040;42.614;23.164;2022-07-29T11:37:20;92739.88;;;31.99;46.34
19763;BME280;10040;42.614;23.164;2022-07-29T11:40:09;92740.50;;;32.03;46.02
19763;BME280;10040;42.614;23.164;2022-07-29T11:42:47;92706.69;;;32.19;45.44
19763;BME280;10040;42.614;23.164;2022-07-29T11:45:19;92730.91;;;31.85;45.13
19763;BME280;10040;42.614;23.164;2022-07-29T11:47:49;92732.63;;;31.83;45.40
19763;BME280;10040;42.614;23.164;2022-07-29T11:50:27;92738.38;;;31.61;45.55
19763;BME280;10040;42.614;23.164;2022-07-29T11:52:56;92736.78;;;31.04;46.74
19763;BME280;10040;42.614;23.164;2022-07-29T11:55:24;92727.13;;;30.68;49.53
19763;BME280;10040;42.614;23.164;2022-07-29T11:57:53;92732.72;;;30.37;48.53
19763;BME280;10040;42.614;23.164;2022-07-29T12:00:24;92731.06;;;30.49;47.69
19763;BME280;10040;42.614;23.164;2022-07-29T12:02:52;92732.53;;;30.72;49.43
19763;BME280;10040;42.614;23.164;2022-07-29T12:05:19;92744.69;;;31.24;46.30
19763;BME280;10040;42.614;23.164;2022-07-29T12:07:48;92727.38;;;31.57;44.69
19763;BME280;10040;42.614;23.164;2022-07-29T12:10:17;92748.28;;;31.71;45.99
19763;BME280;10040;42.614;23.164;2022-07-29T12:12:51;92716.78;;;32.07;44.20
19763;BME280;10040;42.614;23.164;2022-07-29T12:15:19;92720.22;;;31.38;42.92
19763;BME280;10040;42.614;23.164;2022-07-29T12:17:47;92730.56;;;31.92;41.84
19763;BME280;10040;42.614;23.164;2022-07-29T12:20:23;92728.16;;;31.67;44.62
19763;BME280;10040;42.614;23.164;2022-07-29T12:22:51;92729.69;;;31.86;45.44
19763;BME280;10040;42.614;23.164;2022-07-29T12:25:22;92720.94;;;30.83;47.98
19763;BME280;10040;42.614;23.164;2022-07-29T12:28:00;92725.66;;;31.32;44.54
19763;BME280;10040;42.614;23.164;2022-07-29T12:30:39;92727.22;;;31.33;43.84
19763;BME280;10040;42.614;23.164;2022-07-29T12:33:18;92727.66;;;31.22;43.82
19763;BME280;10040;42.614;23.164;2022-07-29T12:35:48;92720.88;;;31.05;43.90
19763;BME280;10040;42.614;23.164;2022-07-29T12:38:17;92726.13;;;31.67;42.69
19763;BME280;10040;42.614;23.164;2022-07-29T12:40:47;92717.44;;;31.84;41.67
19763;BME280;10040;42.614;23.164;2022-07-29T12:43:18;92716.00;;;32.07;43.06
19763;BME280;10040;42.614;23.164;2022-07-29T12:45:48;92715.69;;;32.05;42.88
19763;BME280;10040;42.614;23.164;2022-07-29T12:48:17;92717.06;;;32.61;43.00
19763;BME280;10040;42.614;23.164;2022-07-29T12:50:55;92717.47;;;32.69;41.81
19763;BME280;10040;42.614;23.164;2022-07-29T12:53:23;92712.72;;;33.09;43.08
19763;BME280;10040;42.614;23.164;2022-07-29T12:55:54;92704.59;;;32.72;42.35
19763;BME280;10040;42.614;23.164;2022-07-29T12:58:29;92705.50;;;31.74;43.17
19763;BME280;10040;42.614;23.164;2022-07-29T13:01:05;92692.47;;;30.78;47.84
19763;BME280;10040;42.614;23.164;2022-07-29T13:03:50;92691.75;;;30.37;48.13
19763;BME280;10040;42.614;23.164;2022-07-29T13:06:33;92690.13;;;30.58;48.91
19763;BME280;10040;42.614;23.164;2022-07-29T13:09:09;92684.63;;;31.51;48.57
19763;BME280;10040;42.614;23.164;2022-07-29T13:11:40;92693.03;;;32.12;44.34
19763;BME280;10040;42.614;23.164;2022-07-29T13:14:09;92686.03;;;31.56;42.84